sensor_id;sensor_type;location;lat;lon;timestamp;P1;P2;P0
64114;PMS5003;62188;35.640;139.748;2022-11-15T00:01:35;13;13;
64114;PMS5003;62188;35.640;139.748;2022-11-15T00:04:01;11;10;
64114;PMS5003;62188;35.640;139.748;2022-11-15T00:06:26;10;9;
64114;PMS5003;62188;35.640;139.748;2022-11-15T00:08:52;10;10;
64114;PMS5003;62188;35.640;139.748;2022-11-15T00:11:18;10;10;
64114;PMS5003;62188;35.640;139.748;2022-11-15T00:13:43;12;12;
64114;PMS5003;62188;35.640;139.748;2022-11-15T00:16:09;11;11;
64114;PMS5003;62188;35.640;139.748;2022-11-15T00:18:34;11;10;
64114;PMS5003;62188;35.640;139.748;2022-11-15T00:21:03;11;10;
64114;PMS5003;62188;35.640;139.748;2022-11-15T00:23:26;13;12;
64114;PMS5003;62188;35.640;139.748;2022-11-15T00:25:55;13;13;
64114;PMS5003;62188;35.640;139.748;2022-11-15T00:28:17;11;11;
64114;PMS5003;62188;35.640;139.748;2022-11-15T00:30:42;13;12;
64114;PMS5003;62188;35.640;139.748;2022-11-15T00:33:08;12;12;
64114;PMS5003;62188;35.640;139.748;2022-11-15T00:35:34;13;12;
64114;PMS5003;62188;35.640;139.748;2022-11-15T00:37:59;13;13;
64114;PMS5003;62188;35.640;139.748;2022-11-15T00:40:25;11;11;
64114;PMS5003;62188;35.640;139.748;2022-11-15T00:42:50;14;13;
64114;PMS5003;62188;35.640;139.748;2022-11-15T00:45:16;12;11;
64114;PMS5003;62188;35.640;139.748;2022-11-15T00:47:44;14;14;
64114;PMS5003;62188;35.640;139.748;2022-11-15T00:50:07;13;12;
64114;PMS5003;62188;35.640;139.748;2022-11-15T00:52:32;12;11;
64114;PMS5003;62188;35.640;139.748;2022-11-15T00:54:58;13;12;
64114;PMS5003;62188;35.640;139.748;2022-11-15T00:57:23;11;11;
64114;PMS5003;62188;35.640;139.748;2022-11-15T00:59:49;12;12;
64114;PMS5003;62188;35.640;139.748;2022-11-15T01:02:15;12;12;
64114;PMS5003;62188;35.640;139.748;2022-11-15T01:04:40;12;12;
64114;PMS5003;62188;35.640;139.748;2022-11-15T01:07:06;10;10;
64114;PMS5003;62188;35.640;139.748;2022-11-15T01:09:32;11;11;
64114;PMS5003;62188;35.640;139.748;2022-11-15T01:11:57;12;11;
64114;PMS5003;62188;35.640;139.748;2022-11-15T01:14:23;12;10;
64114;PMS5003;62188;35.640;139.748;2022-11-15T01:16:48;10;10;
64114;PMS5003;62188;35.640;139.748;2022-11-15T01:19:13;12;10;
64114;PMS5003;62188;35.640;139.748;2022-11-15T01:21:39;11;11;
64114;PMS5003;62188;35.640;139.748;2022-11-15T01:24:05;11;11;
64114;PMS5003;62188;35.640;139.748;2022-11-15T01:26:30;12;10;
64114;PMS5003;62188;35.640;139.748;2022-11-15T01:28:56;11;11;
64114;PMS5003;62188;35.640;139.748;2022-11-15T01:31:21;10;10;
64114;PMS5003;62188;35.640;139.748;2022-11-15T01:33:47;12;12;
64114;PMS5003;62188;35.640;139.748;2022-11-15T01:36:13;14;11;
64114;PMS5003;62188;35.640;139.748;2022-11-15T01:38:38;12;10;
64114;PMS5003;62188;35.640;139.748;2022-11-15T01:41:04;11;11;
64114;PMS5003;62188;35.640;139.748;2022-11-15T01:43:30;12;12;
64114;PMS5003;62188;35.640;139.748;2022-11-15T01:45:56;14;13;
64114;PMS5003;62188;35.640;139.748;2022-11-15T01:48:20;13;12;
64114;PMS5003;62188;35.640;139.748;2022-11-15T01:50:46;11;11;
64114;PMS5003;62188;35.640;139.748;2022-11-15T01:53:12;14;13;
64114;PMS5003;62188;35.640;139.748;2022-11-15T01:55:37;15;13;
64114;PMS5003;62188;35.640;139.748;2022-11-15T01:58:03;12;12;
64114;PMS5003;62188;35.640;139.748;2022-11-15T02:00:29;16;15;
64114;PMS5003;62188;35.640;139.748;2022-11-15T02:02:54;14;13;
64114;PMS5003;62188;35.640;139.748;2022-11-15T02:05:20;14;14;
64114;PMS5003;62188;35.640;139.748;2022-11-15T02:07:45;14;12;
64114;PMS5003;62188;35.640;139.748;2022-11-15T02:10:11;14;14;
64114;PMS5003;62188;35.640;139.748;2022-11-15T02:12:36;12;12;
64114;PMS5003;62188;35.640;139.748;2022-11-15T02:15:02;12;12;
64114;PMS5003;62188;35.640;139.748;2022-11-15T02:17:39;14;13;
64114;PMS5003;62188;35.640;139.748;2022-11-15T02:22:22;13;12;
64114;PMS5003;62188;35.640;139.748;2022-11-15T02:24:50;17;15;
64114;PMS5003;62188;35.640;139.748;2022-11-15T02:29:40;15;14;
64114;PMS5003;62188;35.640;139.748;2022-11-15T02:32:02;14;14;
64114;PMS5003;62188;35.640;139.748;2022-11-15T02:34:28;13;13;
64114;PMS5003;62188;35.640;139.748;2022-11-15T02:36:56;14;14;
64114;PMS5003;62188;35.640;139.748;2022-11-15T02:39:19;12;11;
64114;PMS5003;62188;35.640;139.748;2022-11-15T02:41:45;11;11;
64114;PMS5003;62188;35.640;139.748;2022-11-15T02:44:12;13;13;
64114;PMS5003;62188;35.640;139.748;2022-11-15T02:46:36;10;10;
64114;PMS5003;62188;35.640;139.748;2022-11-15T02:49:00;10;10;
64114;PMS5003;62188;35.640;139.748;2022-11-15T02:51:26;12;12;
64114;PMS5003;62188;35.640;139.748;2022-11-15T02:53:52;11;11;
64114;PMS5003;62188;35.640;139.748;2022-11-15T02:56:17;11;11;
64114;PMS5003;62188;35.640;139.748;2022-11-15T03:01:10;13;13;
64114;PMS5003;62188;35.640;139.748;2022-11-15T03:03:38;14;13;
64114;PMS5003;62188;35.640;139.748;2022-11-15T03:06:02;12;12;
64114;PMS5003;62188;35.640;139.748;2022-11-15T03:08:27;14;12;
64114;PMS5003;62188;35.640;139.748;2022-11-15T03:10:52;14;13;
64114;PMS5003;62188;35.640;139.748;2022-11-15T03:13:18;10;10;
64114;PMS5003;62188;35.640;139.748;2022-11-15T03:15:43;14;12;
64114;PMS5003;62188;35.640;139.748;2022-11-15T03:18:08;13;13;
64114;PMS5003;62188;35.640;139.748;2022-11-15T03:20:32;14;14;
64114;PMS5003;62188;35.640;139.748;2022-11-15T03:23:00;14;14;
64114;PMS5003;62188;35.640;139.748;2022-11-15T03:25:24;12;12;
64114;PMS5003;62188;35.640;139.748;2022-11-15T03:27:50;12;12;
64114;PMS5003;62188;35.640;139.748;2022-11-15T03:30:15;14;13;
64114;PMS5003;62188;35.640;139.748;2022-11-15T03:32:41;12;12;
64114;PMS5003;62188;35.640;139.748;2022-11-15T03:35:08;11;11;
64114;PMS5003;62188;35.640;139.748;2022-11-15T03:37:32;11;11;
64114;PMS5003;62188;35.640;139.748;2022-11-15T03:39:57;12;12;
64114;PMS5003;62188;35.640;139.748;2022-11-15T03:42:24;10;10;
64114;PMS5003;62188;35.640;139.748;2022-11-15T03:44:49;13;12;
64114;PMS5003;62188;35.640;139.748;2022-11-15T03:47:15;12;12;
64114;PMS5003;62188;35.640;139.748;2022-11-15T03:49:40;13;11;
64114;PMS5003;62188;35.640;139.748;2022-11-15T03:52:04;12;10;
64114;PMS5003;62188;35.640;139.748;2022-11-15T03:54:30;12;11;
64114;PMS5003;62188;35.640;139.748;2022-11-15T03:56:55;10;10;
64114;PMS5003;62188;35.640;139.748;2022-11-15T03:59:21;12;12;
64114;PMS5003;62188;35.640;139.748;2022-11-15T04:01:47;12;12;
64114;PMS5003;62188;35.640;139.748;2022-11-15T04:04:12;10;10;
64114;PMS5003;62188;35.640;139.748;2022-11-15T04:06:38;12;11;
64114;PMS5003;62188;35.640;139.748;2022-11-15T04:09:03;14;12;
64114;PMS5003;62188;35.640;139.748;2022-11-15T04:11:29;11;11;
64114;PMS5003;62188;35.640;139.748;2022-11-15T04:13:55;13;12;
64114;PMS5003;62188;35.640;139.748;2022-11-15T04:16:20;12;12;
64114;PMS5003;62188;35.640;139.748;2022-11-15T04:18:46;13;13;
64114;PMS5003;62188;35.640;139.748;2022-11-15T04:21:11;11;11;
64114;PMS5003;62188;35.640;139.748;2022-11-15T04:23:37;13;12;
64114;PMS5003;62188;35.640;139.748;2022-11-15T04:26:03;13;13;
64114;PMS5003;62188;35.640;139.748;2022-11-15T04:28:28;14;13;
64114;PMS5003;62188;35.640;139.748;2022-11-15T04:30:53;10;9;
64114;PMS5003;62188;35.640;139.748;2022-11-15T04:33:19;11;11;
64114;PMS5003;62188;35.640;139.748;2022-11-15T04:35:44;13;11;
64114;PMS5003;62188;35.640;139.748;2022-11-15T04:38:10;11;11;
64114;PMS5003;62188;35.640;139.748;2022-11-15T04:40:35;17;17;
64114;PMS5003;62188;35.640;139.748;2022-11-15T04:43:01;14;14;
64114;PMS5003;62188;35.640;139.748;2022-11-15T04:45:26;14;13;
64114;PMS5003;62188;35.640;139.748;2022-11-15T04:47:52;13;13;
64114;PMS5003;62188;35.640;139.748;2022-11-15T04:50:18;12;12;
64114;PMS5003;62188;35.640;139.748;2022-11-15T04:52:44;17;14;
64114;PMS5003;62188;35.640;139.748;2022-11-15T04:55:09;11;11;
64114;PMS5003;62188;35.640;139.748;2022-11-15T04:57:34;12;12;
64114;PMS5003;62188;35.640;139.748;2022-11-15T04:59:59;14;14;
64114;PMS5003;62188;35.640;139.748;2022-11-15T05:02:25;11;11;
64114;PMS5003;62188;35.640;139.748;2022-11-15T05:04:51;16;14;
64114;PMS5003;62188;35.640;139.748;2022-11-15T05:07:16;13;13;
64114;PMS5003;62188;35.640;139.748;2022-11-15T05:09:42;15;15;
64114;PMS5003;62188;35.640;139.748;2022-11-15T05:12:08;12;12;
64114;PMS5003;62188;35.640;139.748;2022-11-15T05:14:33;11;10;
64114;PMS5003;62188;35.640;139.748;2022-11-15T05:16:59;14;13;
64114;PMS5003;62188;35.640;139.748;2022-11-15T05:19:24;11;10;
64114;PMS5003;62188;35.640;139.748;2022-11-15T05:21:50;11;11;
64114;PMS5003;62188;35.640;139.748;2022-11-15T05:24:15;13;11;
64114;PMS5003;62188;35.640;139.748;2022-11-15T05:26:41;10;9;
64114;PMS5003;62188;35.640;139.748;2022-11-15T05:29:08;9;9;
64114;PMS5003;62188;35.640;139.748;2022-11-15T05:31:32;8;8;
64114;PMS5003;62188;35.640;139.748;2022-11-15T05:33:58;11;10;
64114;PMS5003;62188;35.640;139.748;2022-11-15T05:36:27;10;10;
64114;PMS5003;62188;35.640;139.748;2022-11-15T05:38:49;8;8;
64114;PMS5003;62188;35.640;139.748;2022-11-15T05:41:14;10;10;
64114;PMS5003;62188;35.640;139.748;2022-11-15T05:43:40;7;7;
64114;PMS5003;62188;35.640;139.748;2022-11-15T05:46:05;6;5;
64114;PMS5003;62188;35.640;139.748;2022-11-15T05:48:31;6;5;
64114;PMS5003;62188;35.640;139.748;2022-11-15T05:50:57;6;6;
64114;PMS5003;62188;35.640;139.748;2022-11-15T05:53:22;5;5;
64114;PMS5003;62188;35.640;139.748;2022-11-15T05:55:48;7;6;
64114;PMS5003;62188;35.640;139.748;2022-11-15T05:58:14;6;6;
64114;PMS5003;62188;35.640;139.748;2022-11-15T06:00:39;6;6;
64114;PMS5003;62188;35.640;139.748;2022-11-15T06:03:04;6;6;
64114;PMS5003;62188;35.640;139.748;2022-11-15T06:05:30;9;6;
64114;PMS5003;62188;35.640;139.748;2022-11-15T06:07:57;7;7;
64114;PMS5003;62188;35.640;139.748;2022-11-15T06:10:21;7;7;
64114;PMS5003;62188;35.640;139.748;2022-11-15T06:12:47;8;7;
64114;PMS5003;62188;35.640;139.748;2022-11-15T06:15:12;5;5;
64114;PMS5003;62188;35.640;139.748;2022-11-15T06:17:38;6;6;
64114;PMS5003;62188;35.640;139.748;2022-11-15T06:20:03;6;6;
64114;PMS5003;62188;35.640;139.748;2022-11-15T06:22:28;7;7;
64114;PMS5003;62188;35.640;139.748;2022-11-15T06:24:54;6;6;
64114;PMS5003;62188;35.640;139.748;2022-11-15T06:27:20;5;5;
64114;PMS5003;62188;35.640;139.748;2022-11-15T06:29:45;7;7;
64114;PMS5003;62188;35.640;139.748;2022-11-15T06:32:11;7;7;
64114;PMS5003;62188;35.640;139.748;2022-11-15T06:34:37;6;6;
64114;PMS5003;62188;35.640;139.748;2022-11-15T06:37:02;8;8;
64114;PMS5003;62188;35.640;139.748;2022-11-15T06:39:28;5;5;
64114;PMS5003;62188;35.640;139.748;2022-11-15T06:41:53;7;7;
64114;PMS5003;62188;35.640;139.748;2022-11-15T06:44:19;7;7;
64114;PMS5003;62188;35.640;139.748;2022-11-15T06:46:44;7;7;
64114;PMS5003;62188;35.640;139.748;2022-11-15T06:49:09;6;6;
64114;PMS5003;62188;35.640;139.748;2022-11-15T06:51:35;8;7;
64114;PMS5003;62188;35.640;139.748;2022-11-15T06:54:00;8;7;
64114;PMS5003;62188;35.640;139.748;2022-11-15T06:56:26;7;7;
64114;PMS5003;62188;35.640;139.748;2022-11-15T06:58:52;9;9;
64114;PMS5003;62188;35.640;139.748;2022-11-15T07:01:17;11;10;
64114;PMS5003;62188;35.640;139.748;2022-11-15T07:03:43;11;11;
64114;PMS5003;62188;35.640;139.748;2022-11-15T07:06:09;11;11;
64114;PMS5003;62188;35.640;139.748;2022-11-15T07:08:34;9;9;
64114;PMS5003;62188;35.640;139.748;2022-11-15T07:11:00;11;11;
64114;PMS5003;62188;35.640;139.748;2022-11-15T07:13:25;9;9;
64114;PMS5003;62188;35.640;139.748;2022-11-15T07:15:51;11;10;
64114;PMS5003;62188;35.640;139.748;2022-11-15T07:18:16;11;11;
64114;PMS5003;62188;35.640;139.748;2022-11-15T07:20:42;11;11;
64114;PMS5003;62188;35.640;139.748;2022-11-15T07:23:07;13;12;
64114;PMS5003;62188;35.640;139.748;2022-11-15T07:25:33;12;11;
64114;PMS5003;62188;35.640;139.748;2022-11-15T07:27:59;11;8;
64114;PMS5003;62188;35.640;139.748;2022-11-15T07:30:24;11;11;
64114;PMS5003;62188;35.640;139.748;2022-11-15T07:32:52;12;12;
64114;PMS5003;62188;35.640;139.748;2022-11-15T07:35:15;13;12;
64114;PMS5003;62188;35.640;139.748;2022-11-15T07:37:41;12;12;
64114;PMS5003;62188;35.640;139.748;2022-11-15T07:40:07;10;10;
64114;PMS5003;62188;35.640;139.748;2022-11-15T07:42:32;11;11;
64114;PMS5003;62188;35.640;139.748;2022-11-15T07:44:57;11;11;
64114;PMS5003;62188;35.640;139.748;2022-11-15T07:47:23;13;13;
64114;PMS5003;62188;35.640;139.748;2022-11-15T07:49:49;12;11;
64114;PMS5003;62188;35.640;139.748;2022-11-15T07:52:14;13;11;
64114;PMS5003;62188;35.640;139.748;2022-11-15T07:54:40;11;10;
64114;PMS5003;62188;35.640;139.748;2022-11-15T07:57:05;10;10;
64114;PMS5003;62188;35.640;139.748;2022-11-15T07:59:31;8;8;
64114;PMS5003;62188;35.640;139.748;2022-11-15T08:01:57;12;12;
64114;PMS5003;62188;35.640;139.748;2022-11-15T08:04:22;11;11;
64114;PMS5003;62188;35.640;139.748;2022-11-15T08:06:49;11;11;
64114;PMS5003;62188;35.640;139.748;2022-11-15T08:09:13;12;11;
64114;PMS5003;62188;35.640;139.748;2022-11-15T08:11:39;10;9;
64114;PMS5003;62188;35.640;139.748;2022-11-15T08:14:04;10;9;
64114;PMS5003;62188;35.640;139.748;2022-11-15T08:16:30;10;9;
64114;PMS5003;62188;35.640;139.748;2022-11-15T08:18:56;10;10;
64114;PMS5003;62188;35.640;139.748;2022-11-15T08:21:21;11;10;
64114;PMS5003;62188;35.640;139.748;2022-11-15T08:23:47;10;10;
64114;PMS5003;62188;35.640;139.748;2022-11-15T08:26:12;10;10;
64114;PMS5003;62188;35.640;139.748;2022-11-15T08:28:38;12;12;
64114;PMS5003;62188;35.640;139.748;2022-11-15T08:31:04;10;10;
64114;PMS5003;62188;35.640;139.748;2022-11-15T08:33:29;10;10;
64114;PMS5003;62188;35.640;139.748;2022-11-15T08:35:56;12;11;
64114;PMS5003;62188;35.640;139.748;2022-11-15T08:38:20;11;10;
64114;PMS5003;62188;35.640;139.748;2022-11-15T08:40:46;11;10;
64114;PMS5003;62188;35.640;139.748;2022-11-15T08:43:11;13;13;
64114;PMS5003;62188;35.640;139.748;2022-11-15T08:45:37;11;11;
64114;PMS5003;62188;35.640;139.748;2022-11-15T08:48:02;15;14;
64114;PMS5003;62188;35.640;139.748;2022-11-15T08:50:28;13;13;
64114;PMS5003;62188;35.640;139.748;2022-11-15T08:52:53;15;15;
64114;PMS5003;62188;35.640;139.748;2022-11-15T08:55:19;18;17;
64114;PMS5003;62188;35.640;139.748;2022-11-15T08:57:46;12;12;
64114;PMS5003;62188;35.640;139.748;2022-11-15T09:00:10;14;14;
64114;PMS5003;62188;35.640;139.748;2022-11-15T09:02:37;14;14;
64114;PMS5003;62188;35.640;139.748;2022-11-15T09:05:01;15;15;
64114;PMS5003;62188;35.640;139.748;2022-11-15T09:07:27;14;14;
64114;PMS5003;62188;35.640;139.748;2022-11-15T09:09:52;13;13;
64114;PMS5003;62188;35.640;139.748;2022-11-15T09:12:17;16;15;
64114;PMS5003;62188;35.640;139.748;2022-11-15T09:14:43;17;15;
64114;PMS5003;62188;35.640;139.748;2022-11-15T09:17:09;14;14;
64114;PMS5003;62188;35.640;139.748;2022-11-15T09:19:34;14;14;
64114;PMS5003;62188;35.640;139.748;2022-11-15T09:22:00;18;17;
64114;PMS5003;62188;35.640;139.748;2022-11-15T09:24:25;17;17;
64114;PMS5003;62188;35.640;139.748;2022-11-15T09:26:50;19;17;
64114;PMS5003;62188;35.640;139.748;2022-11-15T09:29:16;16;16;
64114;PMS5003;62188;35.640;139.748;2022-11-15T09:31:42;18;18;
64114;PMS5003;62188;35.640;139.748;2022-11-15T09:34:07;17;17;
64114;PMS5003;62188;35.640;139.748;2022-11-15T09:36:32;17;17;
64114;PMS5003;62188;35.640;139.748;2022-11-15T09:38:58;17;16;
64114;PMS5003;62188;35.640;139.748;2022-11-15T09:43:50;19;17;
64114;PMS5003;62188;35.640;139.748;2022-11-15T09:46:16;16;16;
64114;PMS5003;62188;35.640;139.748;2022-11-15T09:48:46;13;13;
64114;PMS5003;62188;35.640;139.748;2022-11-15T09:51:08;17;14;
64114;PMS5003;62188;35.640;139.748;2022-11-15T09:53:33;14;14;
64114;PMS5003;62188;35.640;139.748;2022-11-15T09:55:58;15;15;
64114;PMS5003;62188;35.640;139.748;2022-11-15T09:58:24;18;17;
64114;PMS5003;62188;35.640;139.748;2022-11-15T10:00:48;18;16;
64114;PMS5003;62188;35.640;139.748;2022-11-15T10:03:13;17;16;
64114;PMS5003;62188;35.640;139.748;2022-11-15T10:05:40;14;14;
64114;PMS5003;62188;35.640;139.748;2022-11-15T10:08:05;17;17;
64114;PMS5003;62188;35.640;139.748;2022-11-15T10:10:31;17;16;
64114;PMS5003;62188;35.640;139.748;2022-11-15T10:12:55;19;19;
64114;PMS5003;62188;35.640;139.748;2022-11-15T10:15:20;16;16;
64114;PMS5003;62188;35.640;139.748;2022-11-15T10:20:13;20;19;
64114;PMS5003;62188;35.640;139.748;2022-11-15T10:22:38;19;18;
64114;PMS5003;62188;35.640;139.748;2022-11-15T10:27:27;17;15;
64114;PMS5003;62188;35.640;139.748;2022-11-15T10:29:53;18;18;
64114;PMS5003;62188;35.640;139.748;2022-11-15T10:32:19;19;19;
64114;PMS5003;62188;35.640;139.748;2022-11-15T10:34:44;17;16;
64114;PMS5003;62188;35.640;139.748;2022-11-15T10:37:10;17;17;
64114;PMS5003;62188;35.640;139.748;2022-11-15T10:39:35;20;20;
64114;PMS5003;62188;35.640;139.748;2022-11-15T10:44:27;20;19;
64114;PMS5003;62188;35.640;139.748;2022-11-15T10:49:18;22;22;
64114;PMS5003;62188;35.640;139.748;2022-11-15T10:51:44;19;19;
64114;PMS5003;62188;35.640;139.748;2022-11-15T10:54:08;20;19;
64114;PMS5003;62188;35.640;139.748;2022-11-15T10:56:34;22;22;
64114;PMS5003;62188;35.640;139.748;2022-11-15T10:58:59;19;18;
64114;PMS5003;62188;35.640;139.748;2022-11-15T11:01:25;23;20;
64114;PMS5003;62188;35.640;139.748;2022-11-15T11:06:16;22;21;
64114;PMS5003;62188;35.640;139.748;2022-11-15T11:11:07;20;20;
64114;PMS5003;62188;35.640;139.748;2022-11-15T11:13:33;20;19;
64114;PMS5003;62188;35.640;139.748;2022-11-15T11:16:00;21;19;
64114;PMS5003;62188;35.640;139.748;2022-11-15T11:18:25;22;21;
64114;PMS5003;62188;35.640;139.748;2022-11-15T11:20:57;19;19;
64114;PMS5003;62188;35.640;139.748;2022-11-15T11:23:23;22;21;
64114;PMS5003;62188;35.640;139.748;2022-11-15T11:25:48;19;19;
64114;PMS5003;62188;35.640;139.748;2022-11-15T11:28:11;23;22;
64114;PMS5003;62188;35.640;139.748;2022-11-15T11:30:34;19;19;
64114;PMS5003;62188;35.640;139.748;2022-11-15T11:33:00;21;21;
64114;PMS5003;62188;35.640;139.748;2022-11-15T11:35:30;24;22;
64114;PMS5003;62188;35.640;139.748;2022-11-15T11:37:49;26;26;
64114;PMS5003;62188;35.640;139.748;2022-11-15T11:40:20;24;24;
64114;PMS5003;62188;35.640;139.748;2022-11-15T11:42:41;22;22;
64114;PMS5003;62188;35.640;139.748;2022-11-15T11:45:10;19;19;
64114;PMS5003;62188;35.640;139.748;2022-11-15T11:47:31;23;23;
64114;PMS5003;62188;35.640;139.748;2022-11-15T11:49:57;22;21;
64114;PMS5003;62188;35.640;139.748;2022-11-15T11:52:23;23;23;
64114;PMS5003;62188;35.640;139.748;2022-11-15T11:54:50;22;22;
64114;PMS5003;62188;35.640;139.748;2022-11-15T11:57:14;23;22;
64114;PMS5003;62188;35.640;139.748;2022-11-15T11:59:39;21;21;
64114;PMS5003;62188;35.640;139.748;2022-11-15T12:04:30;22;21;
64114;PMS5003;62188;35.640;139.748;2022-11-15T12:06:55;19;19;
64114;PMS5003;62188;35.640;139.748;2022-11-15T12:09:22;23;22;
64114;PMS5003;62188;35.640;139.748;2022-11-15T12:11:48;26;25;
64114;PMS5003;62188;35.640;139.748;2022-11-15T12:14:12;24;23;
64114;PMS5003;62188;35.640;139.748;2022-11-15T12:16:36;21;21;
64114;PMS5003;62188;35.640;139.748;2022-11-15T12:19:03;23;23;
64114;PMS5003;62188;35.640;139.748;2022-11-15T12:21:30;22;21;
64114;PMS5003;62188;35.640;139.748;2022-11-15T12:23:54;22;22;
64114;PMS5003;62188;35.640;139.748;2022-11-15T12:26:18;24;23;
64114;PMS5003;62188;35.640;139.748;2022-11-15T12:28:45;26;26;
64114;PMS5003;62188;35.640;139.748;2022-11-15T12:31:11;27;27;
64114;PMS5003;62188;35.640;139.748;2022-11-15T12:33:37;25;25;
64114;PMS5003;62188;35.640;139.748;2022-11-15T12:36:02;27;27;
64114;PMS5003;62188;35.640;139.748;2022-11-15T12:45:44;33;31;
64114;PMS5003;62188;35.640;139.748;2022-11-15T12:55:30;32;31;
64114;PMS5003;62188;35.640;139.748;2022-11-15T12:57:51;35;33;
64114;PMS5003;62188;35.640;139.748;2022-11-15T13:02:42;31;31;
64114;PMS5003;62188;35.640;139.748;2022-11-15T13:09:58;31;31;
64114;PMS5003;62188;35.640;139.748;2022-11-15T13:14:50;35;35;
64114;PMS5003;62188;35.640;139.748;2022-11-15T13:17:19;32;32;
64114;PMS5003;62188;35.640;139.748;2022-11-15T13:19:40;33;33;
64114;PMS5003;62188;35.640;139.748;2022-11-15T13:22:06;31;30;
64114;PMS5003;62188;35.640;139.748;2022-11-15T13:24:30;33;33;
64114;PMS5003;62188;35.640;139.748;2022-11-15T13:26:56;28;27;
64114;PMS5003;62188;35.640;139.748;2022-11-15T13:29:21;32;32;
64114;PMS5003;62188;35.640;139.748;2022-11-15T13:31:46;39;38;
64114;PMS5003;62188;35.640;139.748;2022-11-15T13:34:20;34;32;
64114;PMS5003;62188;35.640;139.748;2022-11-15T13:36:37;34;33;
64114;PMS5003;62188;35.640;139.748;2022-11-15T13:39:04;34;33;
64114;PMS5003;62188;35.640;139.748;2022-11-15T13:41:29;38;35;
64114;PMS5003;62188;35.640;139.748;2022-11-15T13:43:53;32;31;
64114;PMS5003;62188;35.640;139.748;2022-11-15T13:46:19;31;30;
64114;PMS5003;62188;35.640;139.748;2022-11-15T13:48:44;25;25;
64114;PMS5003;62188;35.640;139.748;2022-11-15T13:51:10;25;25;
64114;PMS5003;62188;35.640;139.748;2022-11-15T13:53:33;22;21;
64114;PMS5003;62188;35.640;139.748;2022-11-15T13:55:59;19;18;
64114;PMS5003;62188;35.640;139.748;2022-11-15T13:58:25;18;17;
64114;PMS5003;62188;35.640;139.748;2022-11-15T14:00:59;15;15;
64114;PMS5003;62188;35.640;139.748;2022-11-15T14:03:17;14;13;
64114;PMS5003;62188;35.640;139.748;2022-11-15T14:05:41;17;15;
64114;PMS5003;62188;35.640;139.748;2022-11-15T14:10:33;11;11;
64114;PMS5003;62188;35.640;139.748;2022-11-15T14:12:58;14;14;
64114;PMS5003;62188;35.640;139.748;2022-11-15T14:15:27;13;11;
64114;PMS5003;62188;35.640;139.748;2022-11-15T14:17:48;12;12;
64114;PMS5003;62188;35.640;139.748;2022-11-15T14:20:24;13;13;
64114;PMS5003;62188;35.640;139.748;2022-11-15T14:22:39;14;14;
64114;PMS5003;62188;35.640;139.748;2022-11-15T14:25:13;16;14;
64114;PMS5003;62188;35.640;139.748;2022-11-15T14:27:30;12;11;
64114;PMS5003;62188;35.640;139.748;2022-11-15T14:29:56;12;12;
64114;PMS5003;62188;35.640;139.748;2022-11-15T14:32:22;11;11;
64114;PMS5003;62188;35.640;139.748;2022-11-15T14:34:48;10;10;
64114;PMS5003;62188;35.640;139.748;2022-11-15T14:37:18;12;12;
64114;PMS5003;62188;35.640;139.748;2022-11-15T14:39:38;14;13;
64114;PMS5003;62188;35.640;139.748;2022-11-15T14:42:08;10;10;
64114;PMS5003;62188;35.640;139.748;2022-11-15T14:44:29;6;6;
64114;PMS5003;62188;35.640;139.748;2022-11-15T14:46:55;10;8;
64114;PMS5003;62188;35.640;139.748;2022-11-15T14:49:20;9;8;
64114;PMS5003;62188;35.640;139.748;2022-11-15T14:51:46;9;9;
64114;PMS5003;62188;35.640;139.748;2022-11-15T14:54:12;9;8;
64114;PMS5003;62188;35.640;139.748;2022-11-15T14:56:37;8;8;
64114;PMS5003;62188;35.640;139.748;2022-11-15T14:59:03;9;9;
64114;PMS5003;62188;35.640;139.748;2022-11-15T15:01:28;7;7;
64114;PMS5003;62188;35.640;139.748;2022-11-15T15:03:54;10;10;
64114;PMS5003;62188;35.640;139.748;2022-11-15T15:06:19;11;11;
64114;PMS5003;62188;35.640;139.748;2022-11-15T15:08:45;14;13;
64114;PMS5003;62188;35.640;139.748;2022-11-15T15:11:11;11;11;
64114;PMS5003;62188;35.640;139.748;2022-11-15T15:13:36;14;13;
64114;PMS5003;62188;35.640;139.748;2022-11-15T15:16:01;15;14;
64114;PMS5003;62188;35.640;139.748;2022-11-15T15:18:27;13;13;
64114;PMS5003;62188;35.640;139.748;2022-11-15T15:20:54;14;14;
64114;PMS5003;62188;35.640;139.748;2022-11-15T15:23:19;13;13;
64114;PMS5003;62188;35.640;139.748;2022-11-15T15:25:44;18;18;
64114;PMS5003;62188;35.640;139.748;2022-11-15T15:28:09;17;17;
64114;PMS5003;62188;35.640;139.748;2022-11-15T15:30:35;17;17;
64114;PMS5003;62188;35.640;139.748;2022-11-15T15:33:00;19;19;
64114;PMS5003;62188;35.640;139.748;2022-11-15T15:35:28;19;17;
64114;PMS5003;62188;35.640;139.748;2022-11-15T15:37:51;14;14;
64114;PMS5003;62188;35.640;139.748;2022-11-15T15:40:18;20;17;
64114;PMS5003;62188;35.640;139.748;2022-11-15T15:42:43;14;14;
64114;PMS5003;62188;35.640;139.748;2022-11-15T15:45:08;19;17;
64114;PMS5003;62188;35.640;139.748;2022-11-15T15:47:33;17;17;
64114;PMS5003;62188;35.640;139.748;2022-11-15T15:49:59;16;16;
64114;PMS5003;62188;35.640;139.748;2022-11-15T15:52:25;19;18;
64114;PMS5003;62188;35.640;139.748;2022-11-15T15:54:50;19;19;
64114;PMS5003;62188;35.640;139.748;2022-11-15T15:57:16;19;18;
64114;PMS5003;62188;35.640;139.748;2022-11-15T15:59:41;18;18;
64114;PMS5003;62188;35.640;139.748;2022-11-15T16:02:08;21;18;
64114;PMS5003;62188;35.640;139.748;2022-11-15T16:04:32;19;19;
64114;PMS5003;62188;35.640;139.748;2022-11-15T16:06:58;24;23;
64114;PMS5003;62188;35.640;139.748;2022-11-15T16:09:24;19;18;
64114;PMS5003;62188;35.640;139.748;2022-11-15T16:11:49;19;18;
64114;PMS5003;62188;35.640;139.748;2022-11-15T16:14:15;20;20;
64114;PMS5003;62188;35.640;139.748;2022-11-15T16:16:41;15;14;
64114;PMS5003;62188;35.640;139.748;2022-11-15T16:19:06;20;19;
64114;PMS5003;62188;35.640;139.748;2022-11-15T16:21:32;17;17;
64114;PMS5003;62188;35.640;139.748;2022-11-15T16:23:57;19;19;
64114;PMS5003;62188;35.640;139.748;2022-11-15T16:26:24;19;17;
64114;PMS5003;62188;35.640;139.748;2022-11-15T16:28:48;15;15;
64114;PMS5003;62188;35.640;139.748;2022-11-15T16:31:13;19;17;